Time;durP1;ratioP1;P1;durP2;ratioP2;P2;SDS_P1;SDS_P2;PMS_P1;PMS_P2;Temp;Humidity;BMP_temperature;BMP_pressure;BME280_temperature;BME280_humidity;BME280_pressure;Samples;Min_cycle;Max_cycle;Signal;HPM_P1;HPM_P2
2022/07/30 00:01:53;;;;;;;0.30;0.30;;;;;;;15.21;100.00;101062.34;5046521;28;20093;-75
2022/07/30 00:04:24;;;;;;;0.30;0.30;;;;;;;15.21;100.00;101054.22;5059313;28;20509;-75
2022/07/30 00:06:52;;;;;;;125.95;28.05;;;;;;;15.24;100.00;101066.53;5028594;28;20036;-76
2022/07/30 00:09:18;;;;;;;0.45;0.38;;;;;;;15.24;100.00;101075.53;5011744;28;20032;-76
2022/07/30 00:11:44;;;;;;;11.48;10.73;;;;;;;15.23;100.00;101071.13;5043802;28;20440;-76
2022/07/30 00:14:09;;;;;;;25.67;3.35;;;;;;;15.23;100.00;101071.13;5032432;28;20071;-76
2022/07/30 00:16:35;;;;;;;0.28;0.28;;;;;;;15.25;100.00;101074.47;5017998;28;20028;-74
2022/07/30 00:19:01;;;;;;;0.20;0.20;;;;;;;15.25;100.00;101069.06;5014219;28;20086;-76
2022/07/30 00:21:27;;;;;;;0.28;0.28;;;;;;;15.18;100.00;101049.22;5046456;28;20046;-75
2022/07/30 00:23:53;;;;;;;0.30;0.30;;;;;;;15.27;100.00;101063.41;5014144;28;20484;-75
2022/07/30 00:26:18;;;;;;;0.30;0.30;;;;;;;15.27;100.00;101058.88;5031241;28;20036;-76
2022/07/30 00:28:44;;;;;;;0.30;0.30;;;;;;;15.27;100.00;101061.56;5030369;28;20436;-75
2022/07/30 00:31:10;;;;;;;0.50;0.50;;;;;;;15.27;100.00;101058.88;5039160;28;20031;-75
2022/07/30 00:33:35;;;;;;;0.30;0.30;;;;;;;15.25;100.00;101060.94;5004338;28;20292;-76
2022/07/30 00:36:01;;;;;;;1.02;1.02;;;;;;;15.27;100.00;101058.00;5039106;28;20463;-75
2022/07/30 00:38:26;;;;;;;0.30;0.30;;;;;;;15.24;100.00;101053.00;5034178;28;20075;-75
2022/07/30 00:40:52;;;;;;;0.30;0.30;;;;;;;15.27;100.00;101058.88;5025133;28;20116;-75
2022/07/30 00:43:18;;;;;;;0.30;0.30;;;;;;;15.28;100.00;101055.09;5016264;28;20040;-75
2022/07/30 00:45:44;;;;;;;0.30;0.30;;;;;;;15.26;100.00;101057.16;5042746;28;20036;-75
2022/07/30 00:48:11;;;;;;;0.43;0.32;;;;;;;15.27;100.00;101067.00;5029984;28;20033;-75
2022/07/30 00:50:42;;;;;;;0.63;0.60;;;;;;;15.26;100.00;101057.16;5027719;28;20109;-76
2022/07/30 00:53:10;;;;;;;0.22;0.22;;;;;;;15.28;100.00;101059.69;5028942;28;20500;-76
2022/07/30 00:55:36;;;;;;;0.20;0.20;;;;;;;15.29;100.00;101061.34;5026101;28;20477;-75
2022/07/30 00:58:02;;;;;;;0.40;0.40;;;;;;;15.28;100.00;101048.84;5013876;28;20045;-75
2022/07/30 01:00:27;;;;;;;0.20;0.20;;;;;;;15.28;100.00;101057.81;5033632;28;20033;-76
2022/07/30 01:02:53;;;;;;;0.32;0.32;;;;;;;15.26;100.00;101049.03;5061866;28;20363;-76
2022/07/30 01:05:19;;;;;;;0.20;0.20;;;;;;;15.24;100.00;101042.16;5029740;28;20437;-76
2022/07/30 01:07:45;;;;;;;0.30;0.30;;;;;;;15.28;100.00;101052.41;5027612;28;20376;-75
2022/07/30 01:10:13;;;;;;;0.30;0.30;;;;;;;15.27;100.00;101055.28;5040582;28;20044;-77
2022/07/30 01:12:39;;;;;;;0.30;0.30;;;;;;;15.27;100.00;101058.00;5045167;28;20104;-75
2022/07/30 01:15:07;;;;;;;0.40;0.40;;;;;;;15.25;100.00;101052.81;5034550;28;20063;-76
2022/07/30 01:17:36;;;;;;;0.40;0.40;;;;;;;15.25;100.00;101046.56;5027496;28;20127;-75
2022/07/30 01:20:16;;;;;;;0.32;0.32;;;;;;;15.26;100.00;101050.94;5033552;28;20053;-76
2022/07/30 01:22:58;;;;;;;0.30;0.30;;;;;;;15.25;100.00;101043.84;5007601;28;20033;-75
2022/07/30 01:25:47;;;;;;;0.30;0.30;;;;;;;15.13;100.00;101022.72;5060550;28;20581;-75
2022/07/30 01:28:16;;;;;;;0.30;0.30;;;;;;;15.17;100.00;101021.28;5022402;28;20791;-75
2022/07/30 01:30:43;;;;;;;0.88;0.60;;;;;;;15.24;100.00;101028.59;5038731;28;20036;-76
2022/07/30 01:33:14;;;;;;;0.30;0.30;;;;;;;15.22;100.00;101028.81;5034829;28;20033;-75
2022/07/30 01:35:41;;;;;;;0.30;0.30;;;;;;;15.24;100.00;101037.59;5025468;28;20033;-76
2022/07/30 01:38:10;;;;;;;0.30;0.30;;;;;;;15.24;100.00;101028.59;5009769;28;20039;-76
2022/07/30 01:40:36;;;;;;;0.30;0.30;;;;;;;15.22;100.00;101034.25;5048085;28;20025;-76
2022/07/30 01:43:02;;;;;;;0.30;0.30;;;;;;;15.16;100.00;101019.63;5031455;28;20028;-75
2022/07/30 01:45:29;;;;;;;0.30;0.30;;;;;;;15.22;100.00;101023.41;5011736;28;20359;-75
2022/07/30 01:48:01;;;;;;;0.68;0.68;;;;;;;15.22;100.00;101023.41;5045761;28;20065;-76
2022/07/30 01:50:28;;;;;;;0.60;0.60;;;;;;;15.16;100.00;101003.38;5015428;28;20032;-76
2022/07/30 01:53:02;;;;;;;0.30;0.30;;;;;;;15.24;100.00;101026.75;5037346;28;20033;-76
2022/07/30 01:55:47;;;;;;;0.30;0.30;;;;;;;15.24;100.00;101017.78;5030290;28;20036;-76
2022/07/30 01:58:15;;;;;;;0.30;0.30;;;;;;;15.25;100.00;101027.59;5030590;28;20054;-76
2022/07/30 02:00:43;;;;;;;0.30;0.30;;;;;;;15.17;100.00;101012.34;5045231;28;20036;-76
2022/07/30 02:03:09;;;;;;;0.30;0.30;;;;;;;15.25;100.00;101024.88;5031784;28;20029;-76
2022/07/30 02:05:36;;;;;;;0.20;0.20;;;;;;;15.26;100.00;101024.66;5012596;28;20102;-76
2022/07/30 02:08:06;;;;;;;0.30;0.30;;;;;;;15.27;100.00;101020.06;5029501;28;20037;-76
2022/07/30 02:10:45;;;;;;;0.40;0.40;;;;;;;15.27;100.00;101022.78;5009675;28;20555;-76
2022/07/30 02:13:12;;;;;;;0.50;0.50;;;;;;;15.28;100.00;101016.34;5039402;28;20074;-76
2022/07/30 02:15:42;;;;;;;0.30;0.30;;;;;;;15.29;100.00;101018.84;5009812;28;20040;-76
2022/07/30 02:18:19;;;;;;;0.30;0.30;;;;;;;15.29;100.00;101018.84;5041042;28;20060;-76
2022/07/30 02:20:49;;;;;;;0.22;0.22;;;;;;;15.29;100.00;101024.25;5023615;28;20156;-76
2022/07/30 02:23:15;;;;;;;0.30;0.30;;;;;;;15.29;100.00;101021.56;5025956;28;20037;-76
2022/07/30 02:25:46;;;;;;;0.30;0.30;;;;;;;15.30;100.00;101017.81;5017594;28;20657;-77
2022/07/30 02:28:13;;;;;;;0.30;0.30;;;;;;;15.30;100.00;101003.44;5041181;28;20064;-76
2022/07/30 02:30:43;;;;;;;0.45;0.45;;;;;;;15.31;100.00;101016.78;5042117;28;20042;-76
2022/07/30 02:33:11;;;;;;;0.25;0.25;;;;;;;15.29;100.00;101013.41;5028425;28;20044;-75
2022/07/30 02:35:37;;;;;;;0.30;0.30;;;;;;;15.26;100.00;101013.84;5028235;28;20043;-76
2022/07/30 02:38:04;;;;;;;0.40;0.40;;;;;;;15.33;100.00;101009.28;5034387;28;20044;-76
2022/07/30 02:40:30;;;;;;;0.30;0.30;;;;;;;15.32;100.00;101004.91;5008323;28;20035;-76
2022/07/30 02:42:56;;;;;;;0.30;0.30;;;;;;;15.35;100.00;101003.69;5063516;28;20033;-76
2022/07/30 02:45:23;;;;;;;0.38;0.38;;;;;;;15.33;100.00;101006.59;5006294;28;20040;-77
2022/07/30 02:47:59;;;;;;;0.50;0.30;;;;;;;15.34;100.00;100991.16;5050235;28;20032;-77
2022/07/30 02:50:26;;;;;;;0.38;0.38;;;;;;;15.34;100.00;100996.56;5053545;28;20112;-77
2022/07/30 02:52:53;;;;;;;0.30;0.30;;;;;;;15.33;100.00;100990.31;5028292;28;20028;-76
2022/07/30 02:55:20;;;;;;;0.30;0.30;;;;;;;15.35;100.00;100988.25;5037918;28;20040;-76
2022/07/30 02:57:47;;;;;;;0.50;0.40;;;;;;;15.34;100.00;100994.69;5025048;28;20510;-76
2022/07/30 03:00:13;;;;;;;0.30;0.30;;;;;;;15.36;100.00;100984.50;5041499;28;20032;-76
2022/07/30 03:02:39;;;;;;;0.60;0.55;;;;;;;15.36;100.00;100984.50;5020987;28;20066;-76
2022/07/30 03:05:07;;;;;;;0.40;0.40;;;;;;;15.36;100.00;100992.63;5030155;28;20226;-76
2022/07/30 03:07:33;;;;;;;0.85;0.60;;;;;;;15.35;100.00;100990.97;5036338;28;20047;-76
2022/07/30 03:09:59;;;;;;;0.40;0.40;;;;;;;15.36;100.00;100991.78;5043931;28;20040;-76
2022/07/30 03:12:28;;;;;;;0.30;0.30;;;;;;;15.36;100.00;100992.63;5062185;28;20075;-76
2022/07/30 03:14:56;;;;;;;0.50;0.50;;;;;;;15.36;100.00;100984.50;5029157;28;20044;-77
2022/07/30 03:17:24;;;;;;;10.18;9.73;;;;;;;15.30;100.00;100987.19;5047205;28;20032;-76
2022/07/30 03:19:50;;;;;;;264.75;86.05;;;;;;;15.25;100.00;100979.66;5025155;28;20033;-76
2022/07/30 03:22:16;;;;;;;0.50;0.50;;;;;;;15.37;100.00;100998.88;5027086;28;20059;-76
2022/07/30 03:24:43;;;;;;;1.30;0.93;;;;;;;15.37;100.00;100999.72;5058069;28;20462;-76
2022/07/30 03:27:09;;;;;;;0.40;0.40;;;;;;;15.36;100.00;101008.88;5026354;28;20033;-76
2022/07/30 03:29:36;;;;;;;0.30;0.30;;;;;;;15.38;100.00;101001.41;5009988;28;20037;-76
2022/07/30 03:32:03;;;;;;;0.50;0.50;;;;;;;15.36;100.00;101003.47;5027634;28;20028;-77
2022/07/30 03:34:31;;;;;;;1034.43;531.10;;;;;;;15.37;100.00;100999.72;5035099;28;20093;-76
2022/07/30 03:36:57;;;;;;;0.38;0.38;;;;;;;15.38;100.00;101001.41;5040898;28;20039;-77
2022/07/30 03:39:23;;;;;;;0.30;0.30;;;;;;;15.37;100.00;101002.44;5030903;28;20060;-76
2022/07/30 03:41:54;;;;;;;0.63;0.50;;;;;;;15.38;100.00;101004.09;5030131;28;20044;-76
2022/07/30 03:44:20;;;;;;;0.60;0.55;;;;;;;15.39;100.00;100994.09;5041855;28;20087;-76
2022/07/30 03:46:50;;;;;;;0.30;0.30;;;;;;;15.38;100.00;100995.97;5023141;28;20423;-76
2022/07/30 03:49:16;;;;;;;0.30;0.30;;;;;;;15.37;100.00;100993.44;5014332;28;20126;-77
2022/07/30 03:51:45;;;;;;;0.55;0.40;;;;;;;15.32;100.00;100980.53;5050956;28;20886;-77
2022/07/30 03:54:11;;;;;;;0.77;0.77;;;;;;;15.38;100.00;100993.28;5022657;28;20501;-77
2022/07/30 03:56:37;;;;;;;0.30;0.30;;;;;;;15.38;100.00;101000.56;5016848;28;20359;-76
2022/07/30 03:59:05;;;;;;;0.30;0.30;;;;;;;15.37;100.00;100999.72;5026760;28;20463;-76
2022/07/30 04:01:30;;;;;;;0.40;0.40;;;;;;;15.38;100.00;101004.09;5028406;28;20033;-75
2022/07/30 04:04:04;;;;;;;0.57;0.57;;;;;;;15.39;100.00;101010.34;5038110;28;20029;-76
2022/07/30 04:06:30;;;;;;;0.30;0.30;;;;;;;15.32;100.00;101002.22;5041295;28;20132;-75
2022/07/30 04:08:56;;;;;;;0.30;0.30;;;;;;;15.38;100.00;101005.97;5027160;28;20120;-75
2022/07/30 04:11:21;;;;;;;0.40;0.40;;;;;;;15.36;100.00;101006.19;5029451;28;20039;-75
2022/07/30 04:13:47;;;;;;;0.30;0.30;;;;;;;15.36;100.00;101005.34;5065611;28;20055;-77
2022/07/30 04:16:24;;;;;;;0.60;0.60;;;;;;;15.37;100.00;100998.88;5013117;28;20024;-76
2022/07/30 04:18:52;;;;;;;0.40;0.40;;;;;;;15.36;100.00;101003.47;5030613;28;20311;-76
2022/07/30 04:21:29;;;;;;;0.30;0.30;;;;;;;15.37;100.00;101007.88;5031805;28;20036;-76
2022/07/30 04:24:00;;;;;;;0.50;0.50;;;;;;;15.38;100.00;101005.97;5031409;28;20040;-76
2022/07/30 04:26:28;;;;;;;0.30;0.30;;;;;;;15.37;100.00;101004.28;5020744;28;20562;-79
2022/07/30 04:28:54;;;;;;;0.30;0.30;;;;;;;15.36;100.00;101005.34;5065774;28;20040;-76
2022/07/30 04:31:20;;;;;;;0.30;0.30;;;;;;;15.35;100.00;100996.38;5064702;28;20043;-77
2022/07/30 04:33:46;;;;;;;0.40;0.40;;;;;;;15.38;100.00;100997.84;5020238;28;21307;-76
2022/07/30 04:36:19;;;;;;;0.40;0.40;;;;;;;15.38;100.00;100984.31;5034882;28;20477;-77
2022/07/30 04:38:45;;;;;;;0.30;0.30;;;;;;;15.37;100.00;100999.72;5048650;28;20495;-76
2022/07/30 04:41:13;;;;;;;0.50;0.50;;;;;;;15.37;100.00;100999.72;5023744;28;20060;-76
2022/07/30 04:43:39;;;;;;;0.30;0.30;;;;;;;15.37;100.00;101002.44;5015114;28;20684;-76
2022/07/30 04:46:04;;;;;;;0.95;0.70;;;;;;;15.34;100.00;100989.28;5028185;28;20118;-76
2022/07/30 04:48:30;;;;;;;0.30;0.30;;;;;;;15.36;100.00;100998.03;5035779;28;20036;-76
2022/07/30 04:51:00;;;;;;;0.30;0.30;;;;;;;15.38;100.00;100993.28;5030361;28;20322;-76
2022/07/30 04:53:27;;;;;;;0.30;0.30;;;;;;;15.36;100.00;100992.63;5048322;28;20051;-77
2022/07/30 04:55:54;;;;;;;0.75;0.60;;;;;;;15.36;100.00;100987.22;5028885;28;20129;-76
2022/07/30 04:58:23;;;;;;;1.20;0.70;;;;;;;15.36;100.00;100995.34;5033232;28;20020;-77
2022/07/30 05:00:51;;;;;;;0.30;0.30;;;;;;;15.35;100.00;100993.69;5012928;28;20143;-76
2022/07/30 05:03:17;;;;;;;0.30;0.30;;;;;;;15.36;100.00;100995.34;5042037;28;20029;-77
2022/07/30 05:05:43;;;;;;;0.30;0.30;;;;;;;15.38;100.00;100995.16;5010666;28;21292;-77
2022/07/30 05:08:09;;;;;;;0.38;0.38;;;;;;;15.37;100.00;100993.44;5042898;28;20051;-77
2022/07/30 05:10:36;;;;;;;0.30;0.30;;;;;;;15.37;100.00;101001.59;5030019;28;20032;-78
2022/07/30 05:13:02;;;;;;;0.30;0.30;;;;;;;15.36;100.00;100997.22;5045939;28;20024;-77
2022/07/30 05:15:28;;;;;;;0.30;0.30;;;;;;;15.37;100.00;101004.28;5031494;28;20040;-76
2022/07/30 05:17:54;;;;;;;0.30;0.30;;;;;;;15.38;100.00;100995.16;5061929;28;20033;-76
2022/07/30 05:20:20;;;;;;;0.45;0.30;;;;;;;15.32;100.00;100985.97;5045301;28;20055;-76
2022/07/30 05:22:45;;;;;;;0.20;0.20;;;;;;;15.36;100.00;100998.03;5042277;28;20133;-76
2022/07/30 05:25:11;;;;;;;0.50;0.50;;;;;;;15.38;100.00;100985.13;5041137;28;20036;-77
2022/07/30 05:27:36;;;;;;;0.30;0.30;;;;;;;15.37;100.00;100988.03;5001141;28;20040;-77
2022/07/30 05:30:02;;;;;;;0.40;0.40;;;;;;;15.37;100.00;100993.44;5034653;28;20111;-77
2022/07/30 05:32:28;;;;;;;0.30;0.30;;;;;;;15.36;100.00;100989.91;5066252;28;20028;-76
2022/07/30 05:34:57;;;;;;;0.30;0.30;;;;;;;15.36;100.00;100995.34;5048568;28;20051;-77
2022/07/30 05:37:32;;;;;;;0.30;0.30;;;;;;;15.35;100.00;100995.56;5032942;28;20040;-78
2022/07/30 05:40:04;;;;;;;0.30;0.30;;;;;;;15.21;100.00;100970.25;5010100;28;20036;-76
2022/07/30 05:42:29;;;;;;;0.30;0.30;;;;;;;15.38;100.00;101009.53;5050609;28;20113;-76
2022/07/30 05:44:55;;;;;;;0.30;0.30;;;;;;;15.33;100.00;100990.31;5033180;28;20138;-76
2022/07/30 05:47:21;;;;;;;0.30;0.30;;;;;;;15.38;100.00;101001.41;5031737;28;20271;-76
2022/07/30 05:49:47;;;;;;;0.52;0.52;;;;;;;15.38;100.00;100995.16;5041979;28;20033;-76
2022/07/30 05:52:13;;;;;;;0.30;0.30;;;;;;;15.39;100.00;100992.22;5016165;28;20041;-77
2022/07/30 05:54:38;;;;;;;0.30;0.30;;;;;;;15.39;100.00;100988.69;5013026;28;20036;-77
2022/07/30 05:57:04;;;;;;;0.40;0.40;;;;;;;15.38;100.00;100982.44;5018072;28;20033;-76
2022/07/30 05:59:30;;;;;;;1.50;0.60;;;;;;;15.39;100.00;100994.94;5048155;28;20253;-76
2022/07/30 06:01:56;;;;;;;0.40;0.40;;;;;;;15.37;100.00;100988.91;5046778;28;20098;-76
2022/07/30 06:04:21;;;;;;;0.30;0.30;;;;;;;15.42;100.00;100990.97;5046660;28;20119;-77
2022/07/30 06:06:47;;;;;;;0.40;0.40;;;;;;;15.40;100.00;100987.66;5034240;28;20158;-76
2022/07/30 06:09:13;;;;;;;0.30;0.30;;;;;;;15.43;100.00;100984.53;5041658;28;20051;-76
2022/07/30 06:11:39;;;;;;;0.30;0.30;;;;;;;15.43;100.00;100980.97;5051515;28;20041;-76
2022/07/30 06:14:04;;;;;;;0.20;0.20;;;;;;;15.45;100.00;100984.31;5044278;28;20033;-76
2022/07/30 06:16:30;;;;;;;0.30;0.30;;;;;;;15.47;100.00;100984.97;5047057;28;20029;-75
2022/07/30 06:18:56;;;;;;;0.38;0.38;;;;;;;15.50;100.00;100981.84;5067133;28;20090;-76
2022/07/30 06:21:21;;;;;;;0.30;0.30;;;;;;;15.51;100.00;100994.38;5010451;28;20119;-76
2022/07/30 06:23:47;;;;;;;0.43;0.43;;;;;;;15.52;100.00;100985.19;5031959;28;20044;-76
2022/07/30 06:26:13;;;;;;;0.63;0.50;;;;;;;15.52;100.00;100979.78;5042479;28;20115;-75
2022/07/30 06:28:39;;;;;;;0.40;0.40;;;;;;;15.54;100.00;100986.66;5046940;28;20045;-75
2022/07/30 06:31:05;;;;;;;0.32;0.32;;;;;;;15.54;100.00;100983.94;5032312;28;20033;-76
2022/07/30 06:33:31;;;;;;;0.30;0.30;;;;;;;15.58;100.00;100978.94;5050961;28;20031;-76
2022/07/30 06:35:57;;;;;;;0.45;0.45;;;;;;;15.57;100.00;100988.97;5049843;28;20040;-78
2022/07/30 06:38:26;;;;;;;0.30;0.30;;;;;;;15.61;100.00;100989.38;5033713;28;20194;-76
2022/07/30 06:40:52;;;;;;;0.30;0.30;;;;;;;15.63;100.00;100984.59;5033820;28;20456;-75
2022/07/30 06:43:19;;;;;;;0.30;0.30;;;;;;;15.67;100.00;100976.91;5045112;28;20033;-76
2022/07/30 06:45:44;;;;;;;0.30;0.30;;;;;;;15.69;100.00;100986.53;5014623;28;20036;-76
2022/07/30 06:48:10;;;;;;;0.30;0.30;;;;;;;15.69;100.00;100983.84;5030945;28;20058;-76
2022/07/30 06:50:36;;;;;;;0.30;0.30;;;;;;;15.73;100.00;100979.66;5032867;28;20398;-78
2022/07/30 06:53:02;;;;;;;0.30;0.30;;;;;;;15.73;100.00;100976.94;5027281;28;20052;-77
2022/07/30 06:55:27;;;;;;;0.60;0.60;;;;;;;15.72;100.00;100985.31;5063095;28;20040;-76
2022/07/30 06:57:53;;;;;;;0.50;0.50;;;;;;;15.74;100.00;100991.34;5010786;28;20044;-78
2022/07/30 07:00:19;;;;;;;0.32;0.32;;;;;;;15.75;100.00;100991.13;5055009;28;20037;-75
2022/07/30 07:02:45;;;;;;;0.30;0.30;;;;;;;15.78;100.00;100989.91;5037790;28;20036;-77
2022/07/30 07:05:11;;;;;;;0.30;0.30;;;;;;;15.79;100.00;100981.53;5024895;28;20021;-77
2022/07/30 07:07:39;;;;;;;0.40;0.40;;;;;;;15.83;100.00;100993.66;5035281;28;20033;-77
2022/07/30 07:10:05;;;;;;;0.80;0.55;;;;;;;15.85;100.00;100981.75;5013702;28;20056;-78
2022/07/30 07:12:31;;;;;;;0.30;0.30;;;;;;;15.83;100.00;100984.69;5052812;28;20067;-77
2022/07/30 07:14:57;;;;;;;0.30;0.30;;;;;;;15.88;100.00;100989.47;5031283;28;20105;-78
2022/07/30 07:17:23;;;;;;;0.20;0.20;;;;;;;15.88;100.00;100984.91;5047862;28;20035;-77
2022/07/30 07:19:48;;;;;;;0.30;0.30;;;;;;;15.85;100.00;100990.75;5046028;28;20516;-76
2022/07/30 07:22:14;;;;;;;0.30;0.30;;;;;;;15.88;100.00;100989.47;5025108;28;20037;-76
2022/07/30 07:24:40;;;;;;;0.50;0.40;;;;;;;15.92;100.00;100999.72;5039258;28;20466;-77
2022/07/30 07:27:06;;;;;;;0.20;0.20;;;;;;;15.92;100.00;100993.47;5015601;28;20028;-78
2022/07/30 07:29:32;;;;;;;0.20;0.20;;;;;;;15.96;100.00;100992.88;5043921;28;20029;-76
2022/07/30 07:31:58;;;;;;;0.30;0.30;;;;;;;15.98;100.00;101003.50;5047275;28;20033;-76
2022/07/30 07:34:23;;;;;;;0.30;0.30;;;;;;;15.97;100.00;100994.53;5008866;28;20043;-77
2022/07/30 07:36:49;;;;;;;0.40;0.40;;;;;;;16.00;100.00;101001.41;5032637;28;20104;-77
2022/07/30 07:39:15;;;;;;;0.40;0.40;;;;;;;16.01;100.00;100987.66;5043295;28;20032;-77
2022/07/30 07:41:40;;;;;;;3.65;0.43;;;;;;;16.03;100.00;100990.97;5012366;28;20098;-78
2022/07/30 07:44:06;;;;;;;0.30;0.30;;;;;;;16.01;100.00;100975.97;5042518;28;20398;-78
2022/07/30 07:46:33;;;;;;;0.30;0.30;;;;;;;16.09;100.00;100980.34;5062244;28;20066;-76
2022/07/30 07:48:58;;;;;;;0.30;0.30;;;;;;;16.11;100.00;100989.94;5045616;28;20632;-76
2022/07/30 07:51:24;;;;;;;0.30;0.30;;;;;;;16.10;100.00;100982.88;5042562;28;20112;-77
2022/07/30 07:53:50;;;;;;;0.40;0.40;;;;;;;16.14;100.00;100989.56;5061652;28;22279;-76
2022/07/30 07:56:15;;;;;;;0.30;0.30;;;;;;;16.14;100.00;100988.69;5010746;28;20036;-76
2022/07/30 07:58:41;;;;;;;0.30;0.30;;;;;;;16.16;100.00;100989.34;5012107;28;20028;-77
2022/07/30 08:01:07;;;;;;;0.30;0.30;;;;;;;16.17;100.00;100982.88;5009339;28;20060;-77
2022/07/30 08:03:33;;;;;;;0.63;0.63;;;;;;;16.15;100.00;100979.53;5019029;28;20041;-76
2022/07/30 08:06:00;;;;;;;0.38;0.38;;;;;;;16.24;100.00;100981.81;5015455;28;20029;-76
2022/07/30 08:08:26;;;;;;;0.50;0.50;;;;;;;16.37;100.00;100985.59;5017938;28;20040;-75
2022/07/30 08:10:51;;;;;;;0.40;0.40;;;;;;;16.50;100.00;100977.44;5032786;28;20044;-76
2022/07/30 08:13:17;;;;;;;0.30;0.30;;;;;;;16.52;100.00;100988.94;5004820;28;20383;-77
2022/07/30 08:15:43;;;;;;;0.30;0.30;;;;;;;16.38;100.00;100973.69;5052743;28;20177;-75
2022/07/30 08:18:10;;;;;;;0.30;0.30;;;;;;;16.50;100.00;100991.03;5054226;28;20455;-76
2022/07/30 08:20:36;;;;;;;0.30;0.30;;;;;;;16.66;100.00;100987.88;5059653;28;20147;-76
2022/07/30 08:23:03;;;;;;;0.30;0.30;;;;;;;16.79;100.00;100986.22;5064113;28;20470;-77
2022/07/30 08:25:28;;;;;;;0.30;0.30;;;;;;;16.79;100.00;100989.78;5013357;28;20033;-75
2022/07/30 08:27:54;;;;;;;0.30;0.30;;;;;;;16.78;100.00;100976.44;5016749;28;20458;-76
2022/07/30 08:30:20;;;;;;;0.30;0.30;;;;;;;17.07;100.00;100984.09;5026329;28;20430;-76
2022/07/30 08:32:45;;;;;;;0.30;0.30;;;;;;;17.14;100.00;100979.44;5042446;28;20047;-76
2022/07/30 08:35:11;;;;;;;0.30;0.30;;;;;;;17.22;100.00;100994.69;5032815;28;20036;-75
2022/07/30 08:37:39;;;;;;;0.30;0.30;;;;;;;17.11;100.00;100989.91;5017809;28;20459;-75
2022/07/30 08:40:06;;;;;;;0.30;0.30;;;;;;;17.04;100.00;100984.53;5034824;28;20036;-76
2022/07/30 08:42:33;;;;;;;0.45;0.45;;;;;;;17.03;100.00;100987.44;5052332;28;20116;-76
2022/07/30 08:44:59;;;;;;;0.40;0.40;;;;;;;17.17;100.00;100977.34;5025502;28;20055;-75
2022/07/30 08:47:30;;;;;;;0.30;0.30;;;;;;;17.39;100.00;100984.19;5046592;28;20471;-75
2022/07/30 08:50:00;;;;;;;0.30;0.30;;;;;;;17.44;100.00;100987.09;5035106;28;20036;-76
2022/07/30 08:52:27;;;;;;;0.30;0.30;;;;;;;17.45;100.00;100980.59;5048259;28;20036;-76
2022/07/30 08:54:54;;;;;;;0.30;0.30;;;;;;;17.25;100.00;100975.25;5032335;28;20078;-75
2022/07/30 08:57:20;;;;;;;0.30;0.30;;;;;;;17.34;100.00;100986.72;5029897;28;20025;-76
2022/07/30 08:59:46;;;;;;;0.20;0.20;;;;;;;17.26;100.00;100982.34;5031438;28;20035;-76
2022/07/30 09:02:11;;;;;;;0.30;0.30;;;;;;;17.03;100.00;100960.28;5030030;28;20308;-75
2022/07/30 09:04:37;;;;;;;0.30;0.30;;;;;;;17.20;100.00;100991.38;5017064;28;20071;-76
2022/07/30 09:07:02;;;;;;;0.30;0.30;;;;;;;17.22;100.00;100993.84;5037477;28;20478;-77
2022/07/30 09:09:28;;;;;;;0.30;0.30;;;;;;;17.24;100.00;100997.19;5040269;28;20403;-77
2022/07/30 09:11:54;;;;;;;0.30;0.30;;;;;;;17.32;100.00;100999.69;5071998;28;20041;-78
2022/07/30 09:14:19;;;;;;;0.30;0.30;;;;;;;17.25;100.00;100998.84;5023474;28;20028;-77
2022/07/30 09:16:45;;;;;;;0.30;0.30;;;;;;;17.17;100.00;100993.66;5041118;28;20056;-78
2022/07/30 09:19:20;;;;;;;0.30;0.30;;;;;;;17.20;100.00;100993.22;5018369;28;20394;-77
2022/07/30 09:22:01;;;;;;;0.30;0.30;;;;;;;17.23;100.00;100984.69;5033034;28;20127;-78
2022/07/30 09:24:27;;;;;;;0.40;0.40;;;;;;;17.41;100.00;100995.69;5072567;28;20024;-77
2022/07/30 09:26:54;;;;;;;0.32;0.32;;;;;;;17.52;100.00;100992.28;5051517;28;20375;-77
2022/07/30 09:29:26;;;;;;;0.40;0.40;;;;;;;17.41;100.00;100992.13;5059545;28;20454;-78
2022/07/30 09:32:02;;;;;;;0.30;0.30;;;;;;;17.35;100.00;100994.63;5019263;28;20463;-78
2022/07/30 09:34:29;;;;;;;0.30;0.30;;;;;;;17.31;100.00;101008.91;5012760;28;20288;-77
2022/07/30 09:36:59;;;;;;;0.40;0.40;;;;;;;17.36;100.00;101009.09;5038424;28;20043;-77
2022/07/30 09:39:31;;;;;;;0.30;0.30;;;;;;;17.57;100.00;101005.22;5024025;28;20058;-77
2022/07/30 09:41:57;;;;;;;0.30;0.30;;;;;;;17.60;100.00;101002.09;5039268;28;20067;-77
2022/07/30 09:44:25;;;;;;;0.30;0.30;;;;;;;17.56;100.00;101000.84;5038835;28;20253;-77
2022/07/30 09:46:50;;;;;;;0.30;0.30;;;;;;;17.48;100.00;101003.81;5051428;28;20053;-78
2022/07/30 09:49:22;;;;;;;0.50;0.50;;;;;;;17.61;100.00;101006.47;5018663;28;20793;-76
2022/07/30 09:51:48;;;;;;;0.30;0.30;;;;;;;17.66;100.00;100986.78;5053502;28;20121;-76
2022/07/30 09:54:14;;;;;;;0.30;0.30;;;;;;;17.79;100.00;100990.28;5031549;28;20029;-76
2022/07/30 09:56:42;;;;;;;0.40;0.40;;;;;;;18.19;100.00;100991.94;5024526;28;20043;-76
2022/07/30 09:59:26;;;;;;;0.30;0.30;;;;;;;18.49;100.00;101003.00;5064921;28;20024;-76
2022/07/30 10:01:53;;;;;;;0.40;0.40;;;;;;;18.42;100.00;101005.78;5054440;28;20033;-75
2022/07/30 10:04:30;;;;;;;0.30;0.30;;;;;;;18.28;100.00;100992.47;5038853;28;20036;-75
2022/07/30 10:06:57;;;;;;;0.30;0.30;;;;;;;18.26;100.00;101008.19;5018627;28;20044;-75
2022/07/30 10:09:32;;;;;;;0.30;0.30;;;;;;;18.25;100.00;101004.66;5046165;28;20186;-76
2022/07/30 10:12:00;;;;;;;0.30;0.30;;;;;;;18.14;100.00;100994.47;5023915;28;20080;-75
2022/07/30 10:14:29;;;;;;;0.30;0.30;;;;;;;18.12;100.00;101002.03;5048424;28;20043;-75
2022/07/30 10:16:55;;;;;;;0.30;0.30;;;;;;;18.12;100.00;101002.03;5050293;28;20039;-76
2022/07/30 10:19:21;;;;;;;0.30;0.30;;;;;;;18.09;100.00;100997.84;5032142;28;20096;-75
2022/07/30 10:21:50;;;;;;;0.30;0.30;;;;;;;17.99;100.00;101003.78;5035916;28;20036;-75
2022/07/30 10:24:17;;;;;;;0.30;0.30;;;;;;;17.97;100.00;101013.22;5018326;28;20028;-76
2022/07/30 10:26:45;;;;;;;0.30;0.30;;;;;;;18.00;100.00;101008.16;5018119;28;20114;-75
2022/07/30 10:29:11;;;;;;;0.40;0.40;;;;;;;17.96;100.00;101017.81;5046942;28;20040;-76
2022/07/30 10:31:37;;;;;;;0.30;0.30;;;;;;;18.00;100.00;101031.81;5051735;28;20051;-75
2022/07/30 10:34:03;;;;;;;0.32;0.32;;;;;;;18.06;100.00;101011.06;5042574;28;20405;-76
2022/07/30 10:36:29;;;;;;;0.30;0.30;;;;;;;18.11;100.00;101022.13;5034758;28;20029;-75
2022/07/30 10:38:55;;;;;;;0.30;0.30;;;;;;;18.14;100.00;101029.84;5037444;28;20158;-76
2022/07/30 10:42:00;;;;;;;0.52;0.40;;;;;;;18.12;100.00;101026.50;5034227;28;20119;-75
2022/07/30 10:44:49;;;;;;;0.30;0.30;;;;;;;17.87;100.00;101023.75;5053063;28;20091;-75
2022/07/30 10:47:17;;;;;;;0.57;0.57;;;;;;;17.75;100.00;101034.41;5063327;28;21023;-76
2022/07/30 10:50:08;;;;;;;0.40;0.40;;;;;;;17.67;100.00;101021.06;5034297;28;20056;-76
2022/07/30 10:52:56;;;;;;;0.30;0.30;;;;;;;17.69;100.00;101016.25;5050856;28;20035;-76
2022/07/30 10:55:24;;;;;;;0.30;0.30;;;;;;;17.81;100.00;101014.56;5012503;28;20036;-75
2022/07/30 10:58:03;;;;;;;0.40;0.40;;;;;;;18.06;100.00;101022.78;5065005;28;20027;-75
2022/07/30 11:00:49;;;;;;;0.30;0.30;;;;;;;18.25;100.00;101015.53;5053665;28;20032;-75
2022/07/30 11:03:25;;;;;;;0.38;0.38;;;;;;;18.57;100.00;101015.50;5050562;28;20025;-76
2022/07/30 11:06:16;;;;;;;0.35;0.35;;;;;;;18.72;100.00;101021.44;5033311;28;20040;-76
2022/07/30 11:08:47;;;;;;;0.40;0.40;;;;;;;18.59;100.00;101018.84;5053175;28;20042;-76
2022/07/30 11:11:22;;;;;;;0.30;0.30;;;;;;;18.34;100.00;101000.63;5052120;28;20536;-75
2022/07/30 11:13:56;;;;;;;0.50;0.50;;;;;;;18.43;100.00;101009.34;5051405;28;20041;-76
2022/07/30 11:16:43;;;;;;;0.30;0.30;;;;;;;18.44;100.00;101011.84;5031512;28;20479;-75
2022/07/30 11:19:23;;;;;;;0.30;0.30;;;;;;;18.38;100.00;101009.16;5043305;28;20086;-75
2022/07/30 11:22:27;;;;;;;0.40;0.40;;;;;;;18.70;100.00;101006.38;5034777;28;20035;-76